logo
Search for airport 
image banner adimage banner adimage banner ad
image banner ad

CA876 - Pontiac Airpark Qc (Cpc7)

Located in , Canada

ICAO - , IATA -

Data provided by Airmate  

General information

Coordinates: N45°31'25" W76°10'15"
Elevation is feet MSL.
 
View others Airports in Quebec

Operational data

Special qualification required
Current time UTC:
Current local time:
METAR: CYOW 070100Z 26005KT 15SM SKC M11/M15 A3034 RMK SLP286
TAF: TAF CYOW 062340Z 0700/0724 VRB03KT P6SM SKC FM070900 07008KT P6SM FEW010 FM071500 10008KT P6SM SCT140 BKN200 FM071900 13005KT P6SM FEW012 BKN025 OVC040 TEMPO 0719/0721 3SM -SN BKN012 OVC040 PROB30 0720/0721 3SM -SN -FZDZ FM072100 13005KT 3SM -SN OVC015 PROB30 0721/0724 2SM -SN -FZDZ OVC012 RMK NXT FCST BY 070300Z
View NOTAMs / SUP AIP / TFR affecting this airport [VIEW]
Communications frequencies: [VIEW]

Runways:

Airport contact information

Address: Canada

Satellite view of CA876